Time;durP1;ratioP1;P1;durP2;ratioP2;P2;SDS_P1;SDS_P2;PMS_P1;PMS_P2;Temp;Humidity;BMP_temperature;BMP_pressure;BME280_temperature;BME280_humidity;BME280_pressure;Samples;Min_cycle;Max_cycle;Signal;HPM_P1;HPM_P2
2022/05/03 00:01:35;;;;;;;0.57;0.57;;;;;;;15.46;42.89;101184.97;5094245;28;20122;-83
2022/05/03 00:05:03;;;;;;;1.35;1.25;;;;;;;15.42;42.64;101173.66;5095844;28;20051;-82
2022/05/03 00:07:43;;;;;;;0.60;0.60;;;;;;;15.50;42.49;101171.56;5094063;28;20031;-83
2022/05/03 00:10:16;;;;;;;1.25;1.15;;;;;;;15.48;42.11;101170.75;5111617;28;20018;-85
2022/05/03 00:13:06;;;;;;;1.33;1.23;;;;;;;15.42;42.80;101169.22;5112143;28;20026;-82
2022/05/03 00:15:40;;;;;;;0.80;0.80;;;;;;;15.34;43.07;101173.94;5114472;28;20042;-82
2022/05/03 00:18:11;;;;;;;1.83;1.42;;;;;;;15.29;42.61;101175.91;5094960;28;20413;-82
2022/05/03 00:20:53;;;;;;;;;;;;;;;;;;;;;
2022/05/03 00:23:26;;;;;;;0.60;0.60;;;;;;;15.22;42.94;101166.50;5107945;28;20046;-82
2022/05/03 00:25:58;;;;;;;0.98;0.98;;;;;;;15.26;42.69;101168.09;5110694;28;20271;-85
2022/05/03 00:28:28;;;;;;;0.30;0.30;;;;;;;15.23;42.81;101168.25;5106833;28;20307;-84
2022/05/03 00:31:01;;;;;;;0.63;0.60;;;;;;;15.26;43.17;101160.16;5095390;28;20039;-84
2022/05/03 00:33:33;;;;;;;0.77;0.70;;;;;;;15.23;42.76;101165.59;5100032;28;20039;-84
2022/05/03 00:36:06;;;;;;;0.93;0.82;;;;;;;15.18;42.70;101160.50;5111110;28;20039;-85
2022/05/03 00:38:37;;;;;;;0.80;0.80;;;;;;;15.20;42.65;101155.13;5093923;28;20034;-83
2022/05/03 00:41:10;;;;;;;0.50;0.50;;;;;;;15.12;43.15;101158.09;5093967;28;20030;-83
2022/05/03 00:43:53;;;;;;;0.45;0.45;;;;;;;15.13;43.80;101158.94;5091913;28;20050;-84
2022/05/03 00:46:28;;;;;;;2.17;0.90;;;;;;;15.11;43.07;101164.28;5107235;28;20085;-82
2022/05/03 00:49:19;;;;;;;0.80;0.80;;;;;;;15.10;43.43;101155.50;5107681;28;20039;-82
2022/05/03 00:52:00;;;;;;;0.98;0.98;;;;;;;15.04;43.13;101163.66;5108181;28;20086;-82
2022/05/03 00:54:42;;;;;;;0.68;0.68;;;;;;;15.04;42.85;101162.81;5089262;28;20509;-82
2022/05/03 00:57:40;;;;;;;11.05;1.95;;;;;;;14.97;43.23;101163.94;5108871;28;20524;-82
2022/05/03 01:00:14;;;;;;;1.08;1.02;;;;;;;14.95;44.00;101156.97;5094241;28;20039;-83
2022/05/03 01:02:45;;;;;;;1.48;0.82;;;;;;;14.84;43.82;101168.84;5108079;28;20027;-82
2022/05/03 01:05:25;;;;;;;24.88;2.55;;;;;;;14.82;43.72;101168.06;5117631;28;20505;-82
2022/05/03 01:08:29;;;;;;;1.17;0.45;;;;;;;14.88;43.69;101165.19;5109867;28;20046;-83
2022/05/03 01:11:10;;;;;;;1.20;1.13;;;;;;;14.85;43.67;101165.28;5125068;28;20046;-82
2022/05/03 01:14:24;;;;;;;1.67;0.90;;;;;;;14.75;43.77;101162.13;5073595;28;20043;-84
2022/05/03 01:17:02;;;;;;;0.75;0.75;;;;;;;14.73;43.68;101164.84;5128483;28;20091;-83
2022/05/03 01:19:43;;;;;;;2.08;1.48;;;;;;;14.75;43.70;101156.84;5133954;28;20038;-83
2022/05/03 01:22:42;;;;;;;0.38;0.38;;;;;;;14.62;44.35;101166.97;5118808;28;20023;-84
2022/05/03 01:25:57;;;;;;;2.65;1.35;;;;;;;14.62;44.41;101156.41;5114176;28;20034;-84
2022/05/03 01:28:49;;;;;;;0.63;0.63;;;;;;;14.58;44.85;101160.09;5112277;28;20129;-82
2022/05/03 01:31:22;;;;;;;0.65;0.65;;;;;;;14.48;44.59;101159.56;5097455;28;20031;-82
2022/05/03 01:34:02;;;;;;;0.50;0.50;;;;;;;14.45;44.73;101162.31;5112252;28;20031;-83
2022/05/03 01:37:05;;;;;;;5.57;1.08;;;;;;;14.40;44.73;101165.13;5138362;28;20062;-84
2022/05/03 01:39:54;;;;;;;0.93;0.93;;;;;;;14.35;45.83;101172.34;5028688;28;20114;-82
2022/05/03 01:42:39;;;;;;;1.45;0.98;;;;;;;14.31;44.71;101162.81;5110486;28;20271;-83
2022/05/03 01:45:13;;;;;;;0.93;0.93;;;;;;;14.28;45.20;101165.56;5121412;28;20042;-84
2022/05/03 01:48:12;;;;;;;0.80;0.80;;;;;;;14.43;45.07;101159.72;5098138;28;20616;-84
2022/05/03 01:51:14;;;;;;;0.80;0.80;;;;;;;14.08;45.94;101167.13;5092791;28;20047;-81
2022/05/03 01:53:56;;;;;;;0.73;0.73;;;;;;;13.95;47.05;101155.25;5113421;28;20073;-82
2022/05/03 01:56:36;;;;;;;0.70;0.70;;;;;;;14.11;45.27;101163.53;5096876;28;20034;-82
2022/05/03 01:59:36;;;;;;;0.85;0.85;;;;;;;14.12;45.06;101157.34;5096287;28;20549;-82
2022/05/03 02:02:23;;;;;;;1.20;0.65;;;;;;;14.01;45.53;101157.69;5104652;28;20046;-84
2022/05/03 02:05:06;;;;;;;0.60;0.60;;;;;;;14.10;45.31;101162.63;5120462;28;20031;-83
2022/05/03 02:07:58;;;;;;;0.47;0.47;;;;;;;14.09;45.18;101160.06;5116444;28;20485;-84
2022/05/03 02:10:47;;;;;;;0.50;0.50;;;;;;;14.04;45.33;101164.66;5128088;28;20035;-84
2022/05/03 02:16:43;;;;;;;0.30;0.30;;;;;;;14.06;45.22;101158.41;5106242;29;20023;-83
2022/05/03 02:19:41;;;;;;;1.95;1.80;;;;;;;13.93;45.20;101155.31;5116737;28;20031;-83
2022/05/03 02:22:31;;;;;;;0.70;0.70;;;;;;;13.85;46.23;101152.09;5126652;28;20087;-82
2022/05/03 02:25:18;;;;;;;1.95;1.02;;;;;;;13.81;46.34;101159.25;5114096;28;20046;-84
2022/05/03 02:28:00;;;;;;;0.73;0.73;;;;;;;13.81;47.06;101153.97;5136553;28;20023;-85
2022/05/03 02:30:33;;;;;;;0.75;0.75;;;;;;;13.81;46.77;101153.09;5099230;28;20035;-83
2022/05/03 02:33:19;;;;;;;1.13;1.00;;;;;;;13.74;46.09;101151.56;5103587;29;20545;-82
2022/05/03 02:35:58;;;;;;;2.05;1.63;;;;;;;13.69;46.77;101157.00;5102359;28;20031;-82
2022/05/03 02:38:39;;;;;;;0.90;0.90;;;;;;;13.66;46.42;101154.47;5089822;28;20046;-83
2022/05/03 02:41:10;;;;;;;0.88;0.88;;;;;;;13.66;46.24;101154.47;5099332;28;20041;-84
2022/05/03 02:43:46;;;;;;;1.75;1.65;;;;;;;13.61;45.99;101154.63;5086619;28;20054;-83
2022/05/03 02:46:29;;;;;;;2.10;1.67;;;;;;;13.51;46.27;101156.69;5094537;28;20034;-84
2022/05/03 02:49:07;;;;;;;0.75;0.75;;;;;;;13.57;45.79;101149.50;5108213;28;20065;-82
2022/05/03 02:51:51;;;;;;;0.82;0.82;;;;;;;13.46;46.23;101153.34;5101018;28;20015;-84
2022/05/03 02:54:28;;;;;;;4.00;1.75;;;;;;;13.31;47.48;101154.66;5105881;28;20038;-84
2022/05/03 02:57:15;;;;;;;1.52;1.42;;;;;;;13.41;46.93;101147.38;5134673;28;20015;-84
2022/05/03 03:03:04;;;;;;;0.85;0.82;;;;;;;13.31;47.19;101153.81;5141642;28;20027;-82
2022/05/03 03:05:42;;;;;;;0.82;0.82;;;;;;;13.05;49.18;101153.72;5096012;28;20042;-82
2022/05/03 03:08:19;;;;;;;2.45;1.00;;;;;;;13.05;47.67;101144.94;5085938;28;20019;-85
2022/05/03 03:10:58;;;;;;;0.73;0.73;;;;;;;12.84;49.92;101154.34;5129895;28;20014;-83
2022/05/03 03:14:00;;;;;;;0.57;0.57;;;;;;;12.78;49.65;101160.66;5091646;28;20035;-83
2022/05/03 03:16:33;;;;;;;0.50;0.50;;;;;;;12.99;48.08;101156.53;5091379;28;20035;-83
2022/05/03 03:19:23;;;;;;;1.50;1.40;;;;;;;13.01;47.65;101156.50;5097190;28;20037;-82
2022/05/03 03:21:55;;;;;;;0.50;0.50;;;;;;;13.00;47.20;101154.78;5114181;28;20364;-82
2022/05/03 03:24:28;;;;;;;0.68;0.68;;;;;;;13.02;47.45;101152.94;5108896;28;20405;-83
2022/05/03 03:27:02;;;;;;;1.13;1.13;;;;;;;13.08;47.27;101152.75;5111083;28;20031;-82
2022/05/03 03:29:33;;;;;;;;;;;;;;;13.03;46.98;101150.25;5108565;28;20034;-82
2022/05/03 03:32:06;;;;;;;0.32;0.32;;;;;;;12.93;47.44;101155.88;5093800;28;20332;-83
2022/05/03 03:34:41;;;;;;;0.98;0.85;;;;;;;13.03;47.62;101154.66;5094740;28;20062;-83
2022/05/03 03:37:16;;;;;;;1.50;1.40;;;;;;;12.83;48.11;101153.50;5097737;28;20031;-83
2022/05/03 03:39:46;;;;;;;1.50;1.13;;;;;;;12.81;47.01;101152.69;5123964;28;20045;-83
2022/05/03 03:42:20;;;;;;;1.95;1.85;;;;;;;12.86;47.28;101152.53;5096701;28;20540;-83
2022/05/03 03:44:52;;;;;;;0.63;0.63;;;;;;;12.70;47.25;101142.47;5111082;28;20663;-82
2022/05/03 03:47:25;;;;;;;1.50;1.33;;;;;;;12.74;47.37;101145.88;5096687;28;20038;-82
2022/05/03 03:49:57;;;;;;;1.00;1.00;;;;;;;12.59;48.01;101139.25;5109705;28;20450;-83
2022/05/03 03:52:30;;;;;;;1.50;0.82;;;;;;;12.60;47.96;101146.25;5095856;28;20030;-82
2022/05/03 03:55:03;;;;;;;0.43;0.43;;;;;;;12.59;47.46;101142.78;5094563;28;20098;-82
2022/05/03 03:57:35;;;;;;;1.55;1.45;;;;;;;12.66;47.50;101142.59;5113239;28;20042;-83
2022/05/03 04:00:14;;;;;;;0.73;0.73;;;;;;;12.64;47.84;101147.91;5103907;28;20103;-82
2022/05/03 04:02:46;;;;;;;0.65;0.65;;;;;;;12.58;47.77;101151.59;5107505;28;20026;-82
2022/05/03 04:05:23;;;;;;;2.40;2.15;;;;;;;12.26;49.88;101148.09;5097248;28;20146;-83
2022/05/03 04:07:54;;;;;;;0.70;0.70;;;;;;;12.36;49.19;101159.22;5095497;28;20875;-82
2022/05/03 04:10:24;;;;;;;0.77;0.77;;;;;;;12.47;48.08;101156.28;5104922;28;20054;-82
2022/05/03 04:12:57;;;;;;;0.55;0.55;;;;;;;12.40;48.84;101162.63;5092866;28;20523;-83
2022/05/03 04:15:32;;;;;;;2.30;0.47;;;;;;;12.40;48.62;101160.84;5086709;28;20486;-82
2022/05/03 04:18:06;;;;;;;0.40;0.40;;;;;;;12.16;49.45;101165.00;5092514;28;20023;-82
2022/05/03 04:20:37;;;;;;;1.95;1.52;;;;;;;12.43;48.58;101165.19;5093992;28;20035;-83
2022/05/03 04:23:20;;;;;;;0.73;0.73;;;;;;;12.25;49.42;101170.03;5124153;28;20043;-79
2022/05/03 04:25:51;;;;;;;1.10;0.85;;;;;;;12.28;49.47;101166.44;5107347;28;20393;-80
2022/05/03 04:28:21;;;;;;;1.48;1.38;;;;;;;12.30;48.34;101166.41;5115544;28;20038;-79
2022/05/03 04:30:52;;;;;;;2.10;1.13;;;;;;;12.19;48.88;101166.69;5125201;28;20026;-82
2022/05/03 04:33:22;;;;;;;0.52;0.50;;;;;;;12.24;48.74;101170.06;5133150;28;20046;-81
2022/05/03 04:35:53;;;;;;;0.70;0.70;;;;;;;12.31;48.46;101179.53;5132177;28;20038;-81
2022/05/03 04:38:24;;;;;;;0.40;0.40;;;;;;;12.17;48.55;101179.03;5147638;28;20098;-80
2022/05/03 04:41:04;;;;;;;1.38;1.27;;;;;;;12.16;47.88;101178.16;5148136;28;20054;-81
2022/05/03 04:43:35;;;;;;;0.77;0.77;;;;;;;12.13;48.11;101180.88;5094017;28;20034;-80
2022/05/03 04:46:05;;;;;;;0.63;0.63;;;;;;;12.08;48.62;101180.13;5092256;28;20130;-80
2022/05/03 04:48:36;;;;;;;5.30;1.40;;;;;;;12.14;48.43;101179.97;5093046;28;20643;-81
2022/05/03 04:51:14;;;;;;;0.65;0.65;;;;;;;12.17;48.64;101187.78;5095795;28;20035;-80
2022/05/03 04:53:45;;;;;;;1.05;0.95;;;;;;;11.82;49.55;101185.09;5100404;28;20043;-81
2022/05/03 04:56:21;;;;;;;1.90;1.52;;;;;;;11.76;49.38;101195.78;5096667;28;20038;-81
2022/05/03 04:58:56;;;;;;;1.80;1.67;;;;;;;11.97;48.42;101193.56;5115242;28;20107;-81
2022/05/03 05:01:32;;;;;;;0.88;0.88;;;;;;;12.01;48.35;101199.59;5106309;28;20031;-81
2022/05/03 05:04:11;;;;;;;;;;;;;;;11.92;48.33;101201.53;5105074;28;20051;-81
2022/05/03 05:06:42;;;;;;;1.15;1.10;;;;;;;11.81;49.63;101200.94;5119295;28;19984;-81
2022/05/03 05:09:13;;;;;;;0.75;0.75;;;;;;;11.69;49.08;101209.13;5117696;28;20532;-81
2022/05/03 05:11:43;;;;;;;1.73;1.63;;;;;;;11.74;48.76;101213.34;5108349;28;20035;-81
2022/05/03 05:14:14;;;;;;;0.85;0.85;;;;;;;11.77;48.80;101210.66;5145639;28;20058;-81
2022/05/03 05:16:48;;;;;;;0.32;0.32;;;;;;;11.69;49.81;101212.59;5096442;28;20031;-80
2022/05/03 05:19:19;;;;;;;1.20;1.20;;;;;;;11.86;48.70;101212.19;5110365;28;20035;-81
2022/05/03 05:21:49;;;;;;;1.38;1.17;;;;;;;11.78;49.24;101211.50;5112494;28;20026;-81
2022/05/03 05:24:20;;;;;;;2.25;1.58;;;;;;;11.88;49.19;101212.16;5094797;28;20047;-81
2022/05/03 05:26:50;;;;;;;0.30;0.30;;;;;;;11.57;49.65;101211.13;5095889;28;20477;-81
2022/05/03 05:29:21;;;;;;;1.65;0.93;;;;;;;11.38;51.50;101210.69;5125005;28;20097;-80
2022/05/03 05:31:51;;;;;;;0.57;0.57;;;;;;;11.32;52.03;101222.19;5111165;28;20065;-82
2022/05/03 05:34:25;;;;;;;0.98;0.90;;;;;;;11.12;52.06;101224.38;5095058;28;20621;-81
2022/05/03 05:36:58;;;;;;;;;;;;;;;11.47;50.58;101225.38;5096159;28;20023;-82
2022/05/03 05:39:29;;;;;;;1.30;0.67;;;;;;;11.36;50.73;101223.00;5088647;28;20392;-82
2022/05/03 05:42:01;;;;;;;0.50;0.50;;;;;;;11.58;50.34;101212.88;5095368;28;20333;-82
2022/05/03 05:44:31;;;;;;;2.13;1.92;;;;;;;11.59;50.01;101229.47;5110505;28;20047;-80
2022/05/03 05:47:02;;;;;;;0.70;0.70;;;;;;;11.58;50.50;101228.63;5112486;28;20030;-81
2022/05/03 05:49:33;;;;;;;1.23;1.20;;;;;;;11.56;50.35;101222.53;5091831;28;20051;-81
2022/05/03 05:54:53;;;;;;;0.55;0.55;;;;;;;11.64;50.33;101223.22;5166312;28;20038;-83
2022/05/03 05:57:23;;;;;;;0.70;0.70;;;;;;;11.46;53.02;101221.00;5145994;28;20579;-81
2022/05/03 05:59:54;;;;;;;1.15;1.15;;;;;;;11.44;52.90;101230.72;5103591;28;20093;-81
2022/05/03 06:02:24;;;;;;;2.75;1.85;;;;;;;11.60;51.13;101225.97;5112810;28;20109;-82
2022/05/03 06:04:57;;;;;;;0.60;0.60;;;;;;;11.57;51.95;101226.91;5094452;28;20097;-82
2022/05/03 06:07:27;;;;;;;0.77;0.77;;;;;;;11.31;52.28;101223.09;5095912;28;20437;-82
2022/05/03 06:09:58;;;;;;;1.02;1.02;;;;;;;11.62;51.02;101221.53;5130380;28;20050;-82
2022/05/03 06:12:29;;;;;;;3.63;1.38;;;;;;;11.67;51.04;101226.69;5125124;29;20058;-81
2022/05/03 06:14:59;;;;;;;0.50;0.50;;;;;;;11.66;50.54;101228.44;5117912;28;20035;-82
2022/05/03 06:17:30;;;;;;;0.43;0.43;;;;;;;11.60;51.69;101226.84;5118984;28;20031;-82
2022/05/03 06:20:00;;;;;;;1.35;1.25;;;;;;;11.59;53.11;101235.63;5110658;28;20062;-82
2022/05/03 06:22:31;;;;;;;1.35;1.15;;;;;;;11.65;52.03;101242.50;5107109;28;20076;-80
2022/05/03 06:25:04;;;;;;;1.25;1.15;;;;;;;11.67;51.21;101247.72;5091499;28;20062;-82
2022/05/03 06:27:41;;;;;;;0.57;0.57;;;;;;;11.80;50.42;101243.88;5103589;28;20023;-81
2022/05/03 06:30:12;;;;;;;1.55;1.20;;;;;;;11.80;50.92;101244.78;5093136;28;20073;-82
2022/05/03 06:32:43;;;;;;;2.67;2.10;;;;;;;11.73;51.21;101244.94;5109446;28;20267;-81
2022/05/03 06:35:14;;;;;;;1.23;1.13;;;;;;;11.88;50.36;101241.94;5106438;28;20142;-82
2022/05/03 06:37:45;;;;;;;0.73;0.73;;;;;;;11.78;51.40;101248.31;5093861;28;20098;-83
2022/05/03 06:40:15;;;;;;;1.60;1.50;;;;;;;11.67;51.47;101245.09;5103622;28;20474;-81
2022/05/03 06:42:46;;;;;;;19.42;2.15;;;;;;;11.77;51.34;101244.84;5095554;28;20233;-81
2022/05/03 06:45:20;;;;;;;0.45;0.45;;;;;;;11.79;51.13;101252.66;5116201;28;20097;-82
2022/05/03 06:47:51;;;;;;;0.60;0.60;;;;;;;11.81;51.03;101245.63;5094444;28;20351;-81
2022/05/03 06:50:24;;;;;;;1.77;1.67;;;;;;;11.98;51.03;101253.16;5091584;28;20042;-82
2022/05/03 06:52:55;;;;;;;1.40;1.30;;;;;;;11.87;51.15;101248.09;5093735;28;20054;-82
2022/05/03 06:55:26;;;;;;;0.85;0.80;;;;;;;11.86;51.04;101246.38;5105096;28;20055;-82
2022/05/03 06:57:56;;;;;;;0.43;0.43;;;;;;;11.89;50.67;101248.94;5091448;28;20038;-81
2022/05/03 07:00:27;;;;;;;1.50;1.40;;;;;;;12.00;50.15;101250.47;5101669;28;20042;-81
2022/05/03 07:02:57;;;;;;;0.30;0.30;;;;;;;11.91;50.49;101255.03;5096502;28;20050;-82
2022/05/03 07:05:28;;;;;;;0.45;0.45;;;;;;;11.90;50.64;101253.28;5111115;28;20730;-81
2022/05/03 07:07:59;;;;;;;0.93;0.93;;;;;;;11.92;50.25;101254.13;5112483;28;20030;-81
2022/05/03 07:10:30;;;;;;;2.25;1.45;;;;;;;11.91;50.05;101255.03;5088594;28;20041;-80
2022/05/03 07:13:00;;;;;;;0.40;0.40;;;;;;;12.03;49.84;101255.63;5122473;28;20025;-82
2022/05/03 07:15:33;;;;;;;1.23;1.13;;;;;;;12.05;49.61;101257.34;5121845;28;20047;-82
2022/05/03 07:23:45;;;;;;;1.40;1.30;;;;;;;12.15;49.39;101259.75;5122850;28;20039;-82
2022/05/03 07:26:16;;;;;;;1.77;1.67;;;;;;;12.18;49.96;101250.03;5102713;28;20042;-80
2022/05/03 07:28:50;;;;;;;1.08;1.08;;;;;;;12.20;50.02;101263.13;5111508;28;20050;-80
2022/05/03 07:31:20;;;;;;;0.60;0.60;;;;;;;12.40;49.34;101260.00;5110043;28;20134;-80
2022/05/03 07:33:51;;;;;;;0.30;0.30;;;;;;;12.26;49.55;101263.84;5111654;28;20106;-82
2022/05/03 07:36:22;;;;;;;6.63;1.75;;;;;;;12.51;48.92;101257.94;5120570;28;20239;-82
2022/05/03 07:38:53;;;;;;;0.77;0.77;;;;;;;12.45;48.95;101265.97;5112648;28;20035;-81
2022/05/03 07:41:24;;;;;;;0.82;0.82;;;;;;;12.41;49.01;101273.09;5129868;28;20045;-83
2022/05/03 07:43:55;;;;;;;0.60;0.57;;;;;;;12.54;48.69;101267.53;5130026;28;20035;-81
2022/05/03 07:46:25;;;;;;;1.05;1.05;;;;;;;12.50;48.91;101261.47;5105157;28;20041;-83
2022/05/03 07:48:56;;;;;;;2.53;2.33;;;;;;;12.56;48.46;101271.84;5124791;28;20035;-83
2022/05/03 07:51:26;;;;;;;0.63;0.63;;;;;;;12.65;48.37;101269.88;5145585;28;20062;-83
2022/05/03 07:53:57;;;;;;;0.50;0.50;;;;;;;12.71;48.34;101265.31;5128507;28;20038;-80
2022/05/03 07:56:27;;;;;;;0.80;0.80;;;;;;;12.77;48.30;101268.66;5109570;29;20028;-82
2022/05/03 07:58:58;;;;;;;0.45;0.45;;;;;;;13.07;47.16;101264.31;5109765;28;20041;-82
2022/05/03 08:01:28;;;;;;;1.05;1.05;;;;;;;12.95;47.88;101267.28;5111801;28;20058;-82
2022/05/03 08:03:59;;;;;;;0.75;0.75;;;;;;;12.97;47.83;101268.09;5127168;28;20038;-83
2022/05/03 08:06:29;;;;;;;0.95;0.82;;;;;;;12.87;48.10;101267.50;5091029;29;20687;-80
2022/05/03 08:09:00;;;;;;;0.80;0.80;;;;;;;13.02;48.06;101276.72;5144803;28;20045;-81
2022/05/03 08:11:30;;;;;;;0.43;0.43;;;;;;;13.11;47.44;101278.25;5110884;28;20026;-81
2022/05/03 08:14:01;;;;;;;1.30;1.20;;;;;;;12.79;47.83;101277.41;5093652;28;20034;-81
2022/05/03 08:16:32;;;;;;;2.92;0.98;;;;;;;12.84;47.83;101276.38;5115298;28;20050;-80
2022/05/03 08:19:03;;;;;;;0.93;0.60;;;;;;;12.92;47.85;101270.88;5095209;28;20035;-81
2022/05/03 08:21:35;;;;;;;0.70;0.70;;;;;;;12.86;46.49;101279.78;5097218;28;20054;-82
2022/05/03 08:24:06;;;;;;;5.20;3.17;;;;;;;12.93;47.10;101280.50;5122073;28;20652;-80
2022/05/03 08:26:39;;;;;;;0.30;0.30;;;;;;;13.17;46.49;101284.22;5110122;28;20130;-80
2022/05/03 08:29:09;;;;;;;;;;;;;;;13.13;46.57;101285.19;5123250;28;20453;-83
2022/05/03 08:31:40;;;;;;;1.15;1.15;;;;;;;13.21;46.52;101280.56;5111782;28;19914;-82
2022/05/03 08:34:11;;;;;;;2.17;1.80;;;;;;;13.26;46.58;101284.84;5093878;28;20042;-81
2022/05/03 08:42:01;;;;;;;1.02;1.00;;;;;;;13.31;46.11;101288.22;5113563;28;20023;-81
2022/05/03 08:42:22;;;;;;;0.95;0.95;;;;;;;13.41;45.50;101283.56;5122544;28;20027;-81
2022/05/03 08:44:52;;;;;;;0.43;0.43;;;;;;;13.41;45.40;101286.19;5095752;28;20039;-82
2022/05/03 08:47:25;;;;;;;1.40;1.25;;;;;;;13.41;45.14;101286.19;5112151;28;20417;-81
2022/05/03 08:50:03;;;;;;;1.02;1.02;;;;;;;13.44;44.90;101286.09;5110214;28;20114;-81
2022/05/03 08:52:42;;;;;;;0.60;0.60;;;;;;;13.46;45.22;101285.16;5112681;28;20031;-81
2022/05/03 08:55:14;;;;;;;1.48;1.38;;;;;;;13.46;43.88;101287.78;5110903;28;20180;-82
2022/05/03 08:57:45;;;;;;;0.80;0.80;;;;;;;13.50;44.53;101297.34;5110812;28;20031;-81
2022/05/03 09:00:18;;;;;;;0.70;0.70;;;;;;;13.54;43.78;101292.84;5126961;28;20110;-81
2022/05/03 09:02:56;;;;;;;6.43;1.05;;;;;;;13.61;44.18;101309.31;5108871;28;20031;-81
2022/05/03 09:05:29;;;;;;;1.17;1.08;;;;;;;13.71;43.51;101299.38;5096733;28;20042;-81
2022/05/03 09:08:01;;;;;;;7.22;1.33;;;;;;;13.61;43.48;101298.75;5126154;28;20035;-81
2022/05/03 09:10:34;;;;;;;1.00;1.00;;;;;;;13.66;43.78;101297.72;5086582;28;20193;-81
2022/05/03 09:13:22;;;;;;;0.70;0.70;;;;;;;13.65;43.09;101298.63;5094722;28;20094;-82
2022/05/03 09:15:55;;;;;;;1.40;1.30;;;;;;;13.72;43.37;101296.66;5100496;28;20051;-82
2022/05/03 09:18:28;;;;;;;0.40;0.40;;;;;;;13.77;42.29;101304.44;5095563;28;20045;-81
2022/05/03 09:24:15;;;;;;;0.43;0.43;;;;;;;13.92;43.75;101298.69;5126963;28;20619;-81
2022/05/03 09:26:46;;;;;;;0.50;0.50;;;;;;;14.03;43.09;101298.34;5131738;28;20055;-81
2022/05/03 09:29:16;;;;;;;1.02;0.85;;;;;;;14.00;40.61;101293.19;5114002;28;20209;-82
2022/05/03 09:31:48;;;;;;;0.80;0.80;;;;;;;14.12;42.25;101310.38;5151304;28;20038;-81
2022/05/03 09:34:27;;;;;;;2.58;0.55;;;;;;;14.07;41.51;101294.69;5102391;28;20133;-80
2022/05/03 09:37:00;;;;;;;0.30;0.30;;;;;;;14.14;41.31;101292.69;5134108;28;20034;-82
2022/05/03 09:39:41;;;;;;;0.68;0.68;;;;;;;14.20;39.59;101302.19;5127932;28;20429;-83
2022/05/03 09:42:20;;;;;;;0.45;0.45;;;;;;;14.33;41.00;101298.25;5111388;28;20030;-79
2022/05/03 09:44:51;;;;;;;0.40;0.40;;;;;;;14.37;41.69;101297.22;5133331;28;20102;-83
2022/05/03 09:47:24;;;;;;;0.40;0.40;;;;;;;14.45;40.84;101300.47;5125684;28;20046;-82
2022/05/03 09:49:55;;;;;;;6.82;2.15;;;;;;;14.47;40.46;101280.16;5128013;28;20061;-80
2022/05/03 09:52:30;;;;;;;0.85;0.85;;;;;;;14.47;39.54;101303.91;5099535;28;20324;-81
2022/05/03 09:55:07;;;;;;;0.30;0.30;;;;;;;14.53;40.30;101289.66;5096507;28;20050;-81
2022/05/03 09:57:44;;;;;;;0.30;0.30;;;;;;;14.59;40.03;101294.72;5128400;28;20035;-81
2022/05/03 10:00:17;;;;;;;0.77;0.77;;;;;;;14.66;41.02;101300.69;5107996;28;20027;-82
2022/05/03 10:02:52;;;;;;;;;;;;;;;14.70;39.92;101286.44;5139490;28;20110;-81
2022/05/03 10:05:24;;;;;;;0.85;0.85;;;;;;;14.72;38.22;101284.63;5098803;28;19922;-81
2022/05/03 10:07:57;;;;;;;0.95;0.95;;;;;;;14.76;39.26;101286.22;5101390;28;20051;-81
2022/05/03 10:10:27;;;;;;;;;;;;;;;14.84;39.22;101282.44;5116672;28;20035;-82
2022/05/03 10:12:58;;;;;;;0.82;0.82;;;;;;;14.88;39.08;101281.41;5120572;28;19910;-82
2022/05/03 10:21:21;;;;;;;;;;;;;;;14.92;38.53;101285.66;5128151;28;20034;-82
2022/05/03 10:24:06;;;;;;;0.47;0.47;;;;;;;15.08;39.91;101281.53;5118823;28;19914;-80
2022/05/03 10:26:52;;;;;;;0.40;0.40;;;;;;;15.21;39.65;101270.53;5118036;28;20070;-81
2022/05/03 10:29:23;;;;;;;0.73;0.73;;;;;;;15.23;38.05;101273.97;5121495;28;20577;-82
2022/05/03 10:32:06;;;;;;;0.47;0.47;;;;;;;15.40;39.36;101276.84;5129458;28;20053;-81
2022/05/03 10:34:43;;;;;;;0.45;0.45;;;;;;;15.39;39.25;101277.75;5097051;28;20046;-81
2022/05/03 10:37:37;;;;;;;0.60;0.60;;;;;;;15.41;38.98;101282.97;5115326;28;20070;-80
2022/05/03 10:40:14;;;;;;;0.70;0.70;;;;;;;15.47;39.13;101272.16;5106626;28;20039;-81
2022/05/03 10:43:04;;;;;;;0.90;0.90;;;;;;;15.51;39.01;101270.25;5097251;28;20094;-80
2022/05/03 10:45:54;;;;;;;0.90;0.85;;;;;;;15.47;38.69;101266.03;5107066;28;20057;-82
2022/05/03 10:48:33;;;;;;;0.85;0.85;;;;;;;15.50;39.29;101261.47;5111190;28;20122;-82
2022/05/03 10:51:04;;;;;;;3.20;1.13;;;;;;;15.54;38.73;101254.28;5111348;28;20402;-81
2022/05/03 10:53:37;;;;;;;0.30;0.30;;;;;;;15.74;39.10;101262.25;5096795;28;20133;-80
2022/05/03 10:56:18;;;;;;;0.38;0.38;;;;;;;15.82;39.57;101256.69;5113097;28;20650;-81
2022/05/03 10:59:07;;;;;;;0.90;0.90;;;;;;;15.88;40.52;101250.31;5128391;28;20701;-81
2022/05/03 11:01:56;;;;;;;0.68;0.68;;;;;;;16.00;39.00;101256.88;5116879;28;20045;-82
2022/05/03 11:04:26;;;;;;;1.00;0.90;;;;;;;15.93;38.95;101248.31;5137849;28;20058;-81
2022/05/03 11:06:57;;;;;;;1.15;1.05;;;;;;;15.87;38.10;101245.94;5112148;28;20042;-81
2022/05/03 11:09:32;;;;;;;0.60;0.45;;;;;;;16.04;37.92;101242.56;5121246;28;20060;-81
2022/05/03 11:12:05;;;;;;;1.35;1.13;;;;;;;16.16;38.31;101235.91;5113339;28;20023;-81
2022/05/03 11:14:41;;;;;;;0.80;0.55;;;;;;;16.11;38.12;101245.84;5114053;28;20026;-81
2022/05/03 11:17:12;;;;;;;0.40;0.40;;;;;;;16.19;38.44;101241.97;5097392;28;20173;-81
2022/05/03 11:19:56;;;;;;;0.75;0.70;;;;;;;16.34;38.67;101247.53;5110626;28;20037;-80
2022/05/03 11:22:28;;;;;;;;;;;;;;;16.33;37.30;101243.16;5130200;28;20054;-82
2022/05/03 11:25:02;;;;;;;1.02;1.02;;;;;;;16.32;37.88;101229.03;5096907;28;20321;-81
2022/05/03 11:27:42;;;;;;;0.35;0.35;;;;;;;16.46;38.07;101233.72;5100949;28;20103;-80
2022/05/03 11:30:15;;;;;;;1.67;1.58;;;;;;;16.45;37.18;101228.50;5105234;28;20042;-81
2022/05/03 11:32:45;;;;;;;1.17;1.08;;;;;;;16.51;38.44;101233.53;5133606;28;20041;-82
2022/05/03 11:35:21;;;;;;;0.63;0.63;;;;;;;16.58;38.13;101234.97;5114972;28;20103;-81
2022/05/03 11:37:55;;;;;;;0.63;0.63;;;;;;;16.59;36.39;101227.91;5137300;28;20019;-83
2022/05/03 11:40:26;;;;;;;0.43;0.43;;;;;;;16.65;37.64;101228.47;5131471;28;20059;-81
2022/05/03 11:42:59;;;;;;;0.43;0.43;;;;;;;16.78;37.75;101220.00;5105519;28;20550;-81
2022/05/03 11:45:31;;;;;;;1.45;1.35;;;;;;;16.83;38.33;101224.16;5114685;28;20133;-83
2022/05/03 11:48:04;;;;;;;0.52;0.52;;;;;;;16.93;39.62;101208.72;5121352;28;20045;-83
2022/05/03 11:56:23;;;;;;;0.40;0.40;;;;;;;17.23;37.36;101200.25;5113721;28;20062;-81
2022/05/03 11:58:54;;;;;;;0.70;0.70;;;;;;;17.34;37.62;101207.72;5134879;28;20094;-82
2022/05/03 12:01:32;;;;;;;0.77;0.75;;;;;;;17.41;36.97;101203.84;5095127;28;20118;-82
2022/05/03 12:04:05;;;;;;;1.50;0.63;;;;;;;17.51;36.67;101196.28;5138166;28;20042;-84
2022/05/03 12:06:45;;;;;;;1.10;0.80;;;;;;;17.46;37.12;101201.81;5089214;28;20031;-83
2022/05/03 12:09:18;;;;;;;10.10;1.08;;;;;;;17.56;36.53;101186.28;5123631;28;20247;-82
2022/05/03 12:14:46;;;;;;;0.75;0.75;;;;;;;17.64;36.58;101203.66;5129322;28;20039;-83
2022/05/03 12:17:18;;;;;;;0.47;0.47;;;;;;;17.71;37.02;101194.47;5092019;28;20031;-81
2022/05/03 12:19:59;;;;;;;0.77;0.77;;;;;;;17.91;35.59;101196.97;5088006;28;20034;-81
2022/05/03 12:22:30;;;;;;;0.32;0.32;;;;;;;17.87;36.14;101189.22;5098093;28;20046;-81
2022/05/03 12:25:04;;;;;;;0.85;0.85;;;;;;;18.11;34.00;101191.59;5123706;28;20039;-81
2022/05/03 12:27:34;;;;;;;;;;;;;;;18.36;33.23;101183.22;5142006;28;20042;-82
2022/05/03 12:30:11;;;;;;;0.50;0.50;;;;;;;18.21;33.91;101177.78;5105113;28;19924;-80
2022/05/03 12:32:42;;;;;;;0.50;0.50;;;;;;;18.18;35.06;101177.94;5109424;28;20099;-81
2022/05/03 12:35:14;;;;;;;0.50;0.50;;;;;;;18.39;33.58;101175.09;5111116;28;20066;-82
2022/05/03 12:37:51;;;;;;;0.40;0.40;;;;;;;18.47;32.95;101172.88;5099599;28;20445;-83
2022/05/03 12:40:26;;;;;;;0.43;0.43;;;;;;;18.45;31.92;101173.91;5134441;28;20038;-81
2022/05/03 12:43:09;;;;;;;0.20;0.20;;;;;;;18.65;33.61;101173.72;5103712;28;20026;-81
2022/05/03 12:45:40;;;;;;;0.55;0.55;;;;;;;18.61;32.93;101171.31;5111819;28;20441;-81